Time;durP1;ratioP1;P1;durP2;ratioP2;P2;SDS_P1;SDS_P2;PMS_P1;PMS_P2;Temp;Humidity;BMP_temperature;BMP_pressure;BME280_temperature;BME280_humidity;BME280_pressure;Samples;Min_cycle;Max_cycle;Signal;HPM_P1;HPM_P2
2021/11/30 00:00:14;;;;;;;8.80;6.78;;;;;;;23.14;41.58;93257.00;5046149;28;20430;-55
2021/11/30 00:02:40;;;;;;;8.40;6.68;;;;;;;23.12;41.49;93254.13;5046238;28;20040;-53
2021/11/30 00:05:06;;;;;;;9.13;6.82;;;;;;;23.10;41.99;93251.19;5046324;28;20028;-52
2021/11/30 00:07:32;;;;;;;9.48;6.90;;;;;;;23.09;41.68;93247.03;5046233;28;20033;-51
2021/11/30 00:12:25;;;;;;;9.77;7.28;;;;;;;23.03;41.77;93257.41;5046362;28;20029;-51
2021/11/30 00:14:52;;;;;;;8.48;6.82;;;;;;;23.02;41.69;93261.41;5046568;28;20410;-51
2021/11/30 00:17:18;;;;;;;9.15;6.90;;;;;;;23.00;41.87;93250.34;5046036;28;20043;-53
2021/11/30 00:19:46;;;;;;;9.13;6.80;;;;;;;22.99;41.93;93251.59;5046251;28;20036;-53
2021/11/30 00:22:12;;;;;;;8.15;6.07;;;;;;;22.97;41.78;93248.72;5045978;28;20072;-52
2021/11/30 00:24:38;;;;;;;9.13;6.72;;;;;;;22.96;42.11;93244.53;5046042;28;20102;-52
2021/11/30 00:27:05;;;;;;;9.10;6.45;;;;;;;22.94;42.17;93255.25;5046070;28;20484;-53
2021/11/30 00:29:31;;;;;;;9.82;6.93;;;;;;;22.93;41.89;93259.25;5045635;28;20106;-53
2021/11/30 00:31:56;;;;;;;9.40;7.10;;;;;;;22.93;42.09;93261.22;5045778;28;20036;-53
2021/11/30 00:34:22;;;;;;;9.60;7.00;;;;;;;22.93;41.98;93253.78;5045932;28;20028;-53
2021/11/30 00:36:47;;;;;;;8.98;6.95;;;;;;;22.89;41.86;93258.84;5045352;28;20400;-52
2021/11/30 00:39:13;;;;;;;8.43;6.50;;;;;;;22.91;41.84;93258.28;5045845;28;20093;-54
2021/11/30 00:41:44;;;;;;;8.07;6.28;;;;;;;22.87;41.83;93249.06;5045687;28;20025;-52
2021/11/30 00:44:10;;;;;;;9.48;6.82;;;;;;;22.87;41.86;93249.06;5045602;28;20040;-54
2021/11/30 00:46:38;;;;;;;8.68;6.90;;;;;;;22.87;41.80;93251.78;5045441;28;20029;-53
2021/11/30 00:49:05;;;;;;;10.60;7.47;;;;;;;22.85;42.32;93257.75;5045660;28;20021;-52
2021/11/30 00:51:31;;;;;;;9.45;7.05;;;;;;;22.83;41.89;93251.44;5045249;28;20542;-53
2021/11/30 00:53:56;;;;;;;8.88;7.03;;;;;;;22.84;42.32;93261.03;5044185;28;20610;-53
2021/11/30 00:56:22;;;;;;;9.75;7.40;;;;;;;22.83;42.04;93254.16;5044515;28;20207;-54
2021/11/30 00:58:47;;;;;;;9.23;6.93;;;;;;;22.81;42.19;93259.41;5045149;28;20054;-54
2021/11/30 01:01:13;;;;;;;8.15;6.53;;;;;;;22.80;42.06;93255.25;5045311;28;20151;-52
2021/11/30 01:03:40;;;;;;;10.07;7.60;;;;;;;22.79;42.42;93256.53;5045524;28;20043;-51
2021/11/30 01:06:06;;;;;;;9.32;7.05;;;;;;;22.77;42.13;93259.06;5044888;28;20032;-50
2021/11/30 01:08:31;;;;;;;8.63;6.72;;;;;;;22.76;42.15;93255.59;5044873;28;20017;-51
2021/11/30 01:10:57;;;;;;;8.45;6.75;;;;;;;22.76;42.17;93249.44;5045358;28;20044;-51
2021/11/30 01:13:23;;;;;;;8.82;7.00;;;;;;;22.74;42.29;93252.00;5045286;28;20029;-51
2021/11/30 01:15:48;;;;;;;10.27;7.18;;;;;;;22.74;42.37;93252.00;5044737;28;20044;-51
2021/11/30 01:18:14;;;;;;;9.55;7.00;;;;;;;22.73;42.35;93247.81;5044883;28;20033;-51
2021/11/30 01:20:39;;;;;;;8.52;6.50;;;;;;;22.71;42.07;93242.94;5044905;28;20491;-51
2021/11/30 01:23:05;;;;;;;9.73;7.60;;;;;;;22.72;42.49;93232.75;5044719;28;20491;-53
2021/11/30 01:25:31;;;;;;;7.97;6.65;;;;;;;22.70;42.01;93230.59;5044386;28;20112;-50
2021/11/30 01:27:56;;;;;;;8.88;6.60;;;;;;;22.70;42.49;93240.75;5044657;28;20411;-53
2021/11/30 01:30:22;;;;;;;7.85;6.38;;;;;;;22.69;42.44;93239.28;5044456;28;20478;-51
2021/11/30 01:32:47;;;;;;;9.00;6.72;;;;;;;22.66;42.12;93234.94;5044167;28;20040;-54
2021/11/30 01:35:13;;;;;;;9.00;6.68;;;;;;;22.67;42.62;93247.28;5044721;28;20040;-53
2021/11/30 01:37:39;;;;;;;8.73;7.00;;;;;;;22.59;42.39;93230.25;5044227;28;20064;-51
2021/11/30 01:40:08;;;;;;;9.30;6.60;;;;;;;22.66;42.28;93262.16;5044541;28;21143;-50
2021/11/30 01:42:34;;;;;;;9.07;7.32;;;;;;;22.63;42.10;93263.97;5044281;28;20036;-54
2021/11/30 01:45:08;;;;;;;7.95;6.22;;;;;;;22.62;42.36;93272.69;5044534;28;20491;-54
2021/11/30 01:50:00;;;;;;;8.55;6.85;;;;;;;22.59;42.30;93273.78;5043967;28;20068;-54
2021/11/30 01:52:25;;;;;;;8.98;7.13;;;;;;;22.60;42.29;93280.66;5044209;28;20029;-52
2021/11/30 01:54:51;;;;;;;7.78;6.55;;;;;;;22.58;42.40;93283.22;5044162;28;20029;-53
2021/11/30 01:57:19;;;;;;;8.55;7.00;;;;;;;22.58;42.43;93275.03;5043993;28;20032;-53
2021/11/30 01:59:45;;;;;;;7.70;6.28;;;;;;;22.57;42.51;93281.75;5044021;28;20036;-54
2021/11/30 02:02:11;;;;;;;8.85;7.03;;;;;;;22.56;42.35;93274.88;5044304;28;20033;-53
2021/11/30 02:04:37;;;;;;;9.38;7.05;;;;;;;22.53;42.32;93286.84;5044072;28;20025;-52
2021/11/30 02:07:03;;;;;;;8.85;6.57;;;;;;;22.52;42.50;93282.66;5045318;28;20055;-55
2021/11/30 02:09:29;;;;;;;10.13;6.78;;;;;;;22.52;42.47;93277.22;5048544;28;20090;-53
2021/11/30 02:11:54;;;;;;;9.25;6.70;;;;;;;22.49;42.39;93286.47;5048285;28;20075;-52
2021/11/30 02:14:20;;;;;;;8.50;6.70;;;;;;;22.49;42.69;93289.19;5047869;28;20406;-52
2021/11/30 02:16:46;;;;;;;8.55;6.63;;;;;;;22.46;42.52;93287.56;5048198;28;20078;-53
2021/11/30 02:19:12;;;;;;;8.35;6.88;;;;;;;22.46;42.45;93295.72;5047932;28;20033;-52
2021/11/30 02:21:40;;;;;;;9.18;7.05;;;;;;;22.44;42.57;93301.00;5048278;28;20396;-53
2021/11/30 02:24:07;;;;;;;8.25;6.53;;;;;;;22.43;42.38;93302.25;5048255;28;20017;-52
2021/11/30 02:26:34;;;;;;;8.45;6.35;;;;;;;22.42;42.61;93308.97;5046750;28;20045;-52
2021/11/30 02:29:01;;;;;;;8.07;6.32;;;;;;;22.40;42.52;93319.66;5047944;28;20048;-53
2021/11/30 02:31:38;;;;;;;7.65;6.22;;;;;;;22.36;42.49;93322.03;5047872;28;20127;-52
2021/11/30 02:34:04;;;;;;;8.23;6.45;;;;;;;22.38;42.55;93324.91;5046619;28;20111;-53
2021/11/30 02:36:48;;;;;;;8.45;6.45;;;;;;;22.37;42.55;93334.34;5047618;28;20033;-51
2021/11/30 02:39:16;;;;;;;8.50;6.30;;;;;;;22.35;42.46;93342.31;5047773;28;20043;-50
2021/11/30 02:41:41;;;;;;;8.30;6.53;;;;;;;22.34;42.53;93342.88;5047730;28;20040;-51
2021/11/30 02:44:08;;;;;;;7.28;6.28;;;;;;;22.32;42.54;93342.69;5046958;28;20037;-51
2021/11/30 02:46:41;;;;;;;8.02;6.05;;;;;;;22.33;42.74;93342.16;5047563;28;20024;-54
2021/11/30 02:49:11;;;;;;;8.23;5.70;;;;;;;22.32;42.42;93348.84;5047349;28;20044;-55
2021/11/30 02:51:38;;;;;;;8.27;6.05;;;;;;;22.28;42.54;93353.91;5047449;28;20561;-53
2021/11/30 02:54:04;;;;;;;8.00;6.00;;;;;;;22.28;42.59;93351.19;5046999;28;20040;-52
2021/11/30 02:56:30;;;;;;;7.43;5.95;;;;;;;22.28;42.61;93364.78;5047119;28;20159;-53
2021/11/30 02:58:55;;;;;;;7.45;5.68;;;;;;;22.25;42.65;93360.44;5047180;28;20116;-51
2021/11/30 03:01:21;;;;;;;8.15;5.85;;;;;;;22.26;42.57;93372.75;5047227;28;20033;-51
2021/11/30 03:03:47;;;;;;;8.45;6.32;;;;;;;22.25;42.59;93374.03;5047371;28;20106;-51
2021/11/30 03:06:12;;;;;;;7.60;5.88;;;;;;;22.22;42.62;93375.09;5047085;28;20123;-51
2021/11/30 03:08:39;;;;;;;7.50;5.88;;;;;;;22.21;42.57;93381.81;5046924;28;20462;-52
2021/11/30 03:11:05;;;;;;;8.20;5.50;;;;;;;22.19;42.84;93384.31;5045640;28;20049;-52
2021/11/30 03:13:31;;;;;;;7.90;5.53;;;;;;;22.19;42.61;93392.47;5046955;28;20047;-51
2021/11/30 03:15:57;;;;;;;7.35;5.60;;;;;;;22.19;42.65;93394.47;5046885;28;20483;-52
2021/11/30 03:18:23;;;;;;;7.00;5.60;;;;;;;22.17;42.63;93403.16;5045656;28;20028;-53
2021/11/30 03:20:48;;;;;;;8.00;5.63;;;;;;;22.15;42.89;93400.25;5046664;28;20345;-51
2021/11/30 03:23:14;;;;;;;7.05;5.63;;;;;;;22.15;42.78;93405.69;5046641;28;20036;-52
2021/11/30 03:25:42;;;;;;;6.63;5.40;;;;;;;22.14;42.62;93406.97;5046631;28;20052;-51
2021/11/30 03:28:08;;;;;;;6.60;5.47;;;;;;;22.13;42.77;93412.94;5046705;28;20023;-51
2021/11/30 03:30:36;;;;;;;6.78;5.35;;;;;;;22.12;42.67;93412.22;5044911;28;20535;-52
2021/11/30 03:35:45;;;;;;;6.75;4.90;;;;;;;22.11;42.74;93416.19;5046806;28;20079;-51
2021/11/30 03:38:11;;;;;;;6.90;5.10;;;;;;;22.09;42.76;93429.59;5046350;28;20029;-52
2021/11/30 03:40:36;;;;;;;7.05;5.22;;;;;;;22.09;42.84;93428.84;5046301;28;20505;-52
2021/11/30 03:43:02;;;;;;;7.45;5.30;;;;;;;22.07;42.83;93432.13;5046385;28;20450;-52
2021/11/30 03:45:27;;;;;;;6.43;4.78;;;;;;;22.06;42.67;93427.97;5046587;28;20032;-52
2021/11/30 03:47:53;;;;;;;6.28;4.93;;;;;;;22.03;42.83;93431.75;5046611;28;20048;-53
2021/11/30 03:50:18;;;;;;;7.15;5.00;;;;;;;22.04;42.80;93427.03;5046105;28;20045;-52
2021/11/30 03:52:44;;;;;;;6.38;4.65;;;;;;;22.09;42.95;93440.47;5034674;28;20029;-54
2021/11/30 03:55:10;;;;;;;6.03;4.70;;;;;;;22.13;42.79;93442.84;5039282;28;20029;-55
2021/11/30 03:57:35;;;;;;;6.68;4.97;;;;;;;22.17;42.93;93448.66;5039014;28;20130;-52
2021/11/30 04:00:07;;;;;;;6.57;4.78;;;;;;;22.21;42.78;93447.06;5041690;28;20041;-51
2021/11/30 04:02:33;;;;;;;6.72;4.63;;;;;;;22.23;42.73;93447.25;5038877;28;20131;-53
2021/11/30 04:04:58;;;;;;;5.75;4.53;;;;;;;22.35;42.37;93464.69;5035531;28;20112;-54
2021/11/30 04:07:24;;;;;;;5.97;4.40;;;;;;;22.43;42.37;93462.72;5045784;28;20036;-55
2021/11/30 04:09:49;;;;;;;5.78;4.38;;;;;;;22.49;42.23;93468.72;5045738;28;20036;-53
2021/11/30 04:12:15;;;;;;;5.55;4.30;;;;;;;22.53;42.08;93460.94;5045796;28;20051;-54
2021/11/30 04:14:40;;;;;;;5.07;3.92;;;;;;;22.69;41.69;93481.47;5045721;28;20098;-53
2021/11/30 04:17:06;;;;;;;6.03;4.47;;;;;;;22.78;41.61;93475.50;5045767;28;20484;-54
2021/11/30 04:19:33;;;;;;;5.25;4.00;;;;;;;22.91;41.63;93484.97;5045666;28;20037;-53
2021/11/30 04:21:58;;;;;;;5.13;4.10;;;;;;;23.02;41.04;93484.63;5045479;28;20499;-54
2021/11/30 04:24:23;;;;;;;5.40;4.15;;;;;;;23.14;40.55;93502.06;5045676;28;20033;-54
2021/11/30 04:26:49;;;;;;;5.63;4.00;;;;;;;23.31;40.47;93504.25;5046088;28;20499;-54
2021/11/30 04:29:14;;;;;;;5.65;3.85;;;;;;;23.32;40.45;93498.28;5045800;28;20029;-54
2021/11/30 04:31:40;;;;;;;3.95;3.50;;;;;;;23.47;39.96;93506.44;5044414;28;20487;-53
2021/11/30 04:34:05;;;;;;;5.30;3.80;;;;;;;23.58;40.34;93508.78;5045371;28;20033;-52
2021/11/30 04:36:32;;;;;;;4.45;3.50;;;;;;;23.66;39.99;93512.25;5044972;28;20507;-54
2021/11/30 04:38:57;;;;;;;5.03;3.70;;;;;;;23.73;39.47;93511.53;5044919;28;20035;-53
2021/11/30 04:41:23;;;;;;;4.45;3.63;;;;;;;23.81;39.74;93512.22;5045369;28;20021;-54
2021/11/30 04:43:49;;;;;;;5.53;4.15;;;;;;;23.91;39.12;93511.84;5033397;28;20034;-52
2021/11/30 04:48:52;;;;;;;5.55;3.80;;;;;;;24.02;38.67;93541.47;5026654;28;20033;-53
2021/11/30 04:51:17;;;;;;;4.57;3.63;;;;;;;24.00;38.21;93543.28;5027348;28;20065;-54
2021/11/30 04:53:45;;;;;;;5.18;3.17;;;;;;;24.11;39.04;93543.63;5048352;28;20021;-53
2021/11/30 04:56:13;;;;;;;4.45;3.22;;;;;;;24.17;38.98;93549.63;5047135;28;20021;-53
2021/11/30 04:58:39;;;;;;;3.80;3.00;;;;;;;24.29;38.55;93555.41;5047267;28;20040;-54
2021/11/30 05:01:05;;;;;;;5.25;2.95;;;;;;;24.38;38.02;93563.78;5047705;28;20036;-54
2021/11/30 05:03:30;;;;;;;5.25;3.28;;;;;;;24.54;38.23;93565.16;5044418;28;20028;-54
2021/11/30 05:05:55;;;;;;;3.80;3.10;;;;;;;24.57;37.82;93564.81;5026285;28;20025;-53
2021/11/30 05:08:21;;;;;;;4.78;3.03;;;;;;;24.62;37.72;93582.22;5043272;28;20025;-53
2021/11/30 05:10:46;;;;;;;4.13;2.95;;;;;;;24.70;37.79;93589.13;5044613;28;20098;-52
2021/11/30 05:13:13;;;;;;;3.88;2.97;;;;;;;24.72;37.76;93591.31;5044549;28;20091;-54
2021/11/30 05:15:39;;;;;;;3.65;2.65;;;;;;;24.80;38.05;93602.91;5044492;28;20028;-52
2021/11/30 05:18:04;;;;;;;4.15;3.20;;;;;;;24.82;37.53;93605.84;5044678;28;20028;-54
2021/11/30 05:20:30;;;;;;;3.65;2.60;;;;;;;24.86;37.71;93607.63;5028691;28;20486;-54
2021/11/30 05:22:55;;;;;;;3.35;2.58;;;;;;;24.89;37.35;93612.00;5027725;28;20032;-53
2021/11/30 05:25:22;;;;;;;3.95;2.63;;;;;;;24.97;37.19;93612.69;5046863;28;20509;-54
2021/11/30 05:27:49;;;;;;;3.40;2.60;;;;;;;25.03;37.15;93626.88;5046090;28;20033;-52
2021/11/30 05:30:18;;;;;;;3.45;2.47;;;;;;;25.09;37.06;93629.41;5045997;28;20032;-53
2021/11/30 05:32:43;;;;;;;3.67;2.60;;;;;;;25.11;37.07;93627.59;5046326;28;20071;-53
2021/11/30 05:35:09;;;;;;;3.20;2.47;;;;;;;25.19;36.71;93633.75;5045497;28;20029;-53
2021/11/30 05:37:34;;;;;;;3.50;2.80;;;;;;;25.21;36.52;93635.91;5044744;28;20029;-53
2021/11/30 05:40:00;;;;;;;3.60;2.30;;;;;;;25.23;36.48;93647.75;5026323;28;20022;-53
2021/11/30 05:42:25;;;;;;;3.10;2.22;;;;;;;25.23;36.41;93647.75;5024556;28;20119;-53
2021/11/30 05:44:51;;;;;;;2.97;2.17;;;;;;;25.34;36.42;93669.19;5042440;28;20040;-53
2021/11/30 05:47:17;;;;;;;3.22;2.40;;;;;;;25.38;36.59;93662.06;5045053;28;20661;-55
2021/11/30 05:49:42;;;;;;;3.20;2.47;;;;;;;25.39;36.34;93668.25;5043132;28;20036;-53
2021/11/30 05:52:09;;;;;;;3.50;2.22;;;;;;;25.47;36.20;93671.66;5044839;28;20053;-53
2021/11/30 05:54:36;;;;;;;3.13;2.40;;;;;;;25.43;36.28;93674.06;5043450;28;20408;-53
2021/11/30 05:57:02;;;;;;;3.80;2.47;;;;;;;25.38;36.13;93683.19;5028574;28;20503;-53
2021/11/30 05:59:34;;;;;;;4.07;2.13;;;;;;;25.27;35.82;93683.59;5028430;28;20486;-54
2021/11/30 06:02:01;;;;;;;3.25;2.50;;;;;;;25.26;36.59;93693.09;5026278;28;20037;-52
2021/11/30 06:04:27;;;;;;;3.10;2.50;;;;;;;25.19;36.96;93682.91;5038459;28;20112;-52
2021/11/30 06:06:52;;;;;;;3.63;2.60;;;;;;;25.34;36.87;93710.19;5024533;28;20044;-53
2021/11/30 06:09:17;;;;;;;3.97;2.42;;;;;;;25.32;36.76;93712.75;5026277;28;20044;-53
2021/11/30 06:11:45;;;;;;;3.10;2.40;;;;;;;25.45;36.61;93726.16;5043956;28;20074;-52
2021/11/30 06:14:10;;;;;;;3.38;2.20;;;;;;;25.46;36.85;93735.81;5037824;28;20038;-52
2021/11/30 06:16:35;;;;;;;2.58;2.00;;;;;;;25.47;36.62;93735.28;5024821;28;20046;-53
2021/11/30 06:19:01;;;;;;;2.97;2.05;;;;;;;25.53;36.39;93743.25;5034148;28;20029;-55
2021/11/30 06:21:27;;;;;;;3.10;2.28;;;;;;;25.62;36.88;93745.41;5041161;28;20021;-54
2021/11/30 06:23:52;;;;;;;3.15;2.30;;;;;;;25.63;36.66;93757.78;5043375;28;20029;-54
2021/11/30 06:26:18;;;;;;;2.70;1.90;;;;;;;25.60;37.77;93758.91;5044130;28;20028;-53
2021/11/30 06:28:43;;;;;;;4.07;2.20;;;;;;;25.55;37.87;93762.56;5043494;28;20029;-53
2021/11/30 06:31:09;;;;;;;3.33;1.95;;;;;;;25.64;39.29;93770.19;5043959;28;20600;-54
2021/11/30 06:33:34;;;;;;;3.97;2.25;;;;;;;25.71;38.39;93769.44;5043967;28;20040;-54
2021/11/30 06:36:00;;;;;;;2.50;1.80;;;;;;;25.79;38.25;93770.88;5028269;28;20497;-52
2021/11/30 06:38:25;;;;;;;3.72;1.95;;;;;;;25.83;37.10;93779.44;5023416;28;20033;-54
2021/11/30 06:40:51;;;;;;;2.70;1.77;;;;;;;25.80;38.94;93784.00;5030496;28;20123;-53
2021/11/30 06:43:17;;;;;;;3.15;1.70;;;;;;;25.81;38.67;93785.47;5028482;28;20064;-53
2021/11/30 06:45:43;;;;;;;2.75;1.95;;;;;;;25.82;37.88;93794.38;5040108;28;20029;-54
2021/11/30 06:48:08;;;;;;;2.40;1.77;;;;;;;25.79;37.54;93802.97;5043167;28;20048;-54
2021/11/30 06:50:34;;;;;;;2.28;1.67;;;;;;;25.77;38.11;93819.19;5042990;28;20083;-53
2021/11/30 06:52:59;;;;;;;2.50;1.80;;;;;;;25.80;38.35;93810.63;5042821;28;20029;-54
2021/11/30 06:55:25;;;;;;;2.50;1.83;;;;;;;25.84;38.09;93828.13;5045040;28;20025;-54
2021/11/30 06:57:50;;;;;;;2.38;1.60;;;;;;;25.87;37.99;93826.25;5046490;28;20029;-53
2021/11/30 07:00:19;;;;;;;2.00;1.50;;;;;;;25.83;37.51;93832.13;5043117;28;20567;-54
2021/11/30 07:02:45;;;;;;;2.40;1.80;;;;;;;25.83;37.54;93837.59;5039930;28;20037;-53
2021/11/30 07:05:19;;;;;;;2.47;1.40;;;;;;;25.85;37.32;93839.78;5046470;28;20284;-53
2021/11/30 07:15:48;;;;;;;3.05;1.75;;;;;;;26.07;36.80;93856.09;5031412;28;20116;-53
2021/11/30 07:18:15;;;;;;;2.70;1.48;;;;;;;26.10;36.99;93865.94;5040323;28;20061;-53
2021/11/30 07:20:41;;;;;;;2.58;1.80;;;;;;;26.07;36.85;93861.56;5031962;28;20059;-53
2021/11/30 07:23:07;;;;;;;2.38;1.60;;;;;;;26.16;36.83;93877.38;5029596;28;20095;-53
2021/11/30 07:25:32;;;;;;;1.85;1.52;;;;;;;26.22;36.82;93877.16;5028536;28;20033;-52
2021/11/30 07:27:58;;;;;;;3.70;1.67;;;;;;;26.27;36.54;93887.91;5030550;28;20037;-54
2021/11/30 07:30:23;;;;;;;1.65;1.20;;;;;;;26.35;36.57;93883.16;5044479;28;20021;-53
2021/11/30 07:32:49;;;;;;;3.00;1.45;;;;;;;26.31;36.41;93901.97;5025600;28;20037;-52
2021/11/30 07:35:15;;;;;;;2.15;1.55;;;;;;;26.35;36.45;93907.78;4997511;28;20071;-53
2021/11/30 07:37:41;;;;;;;5.72;1.40;;;;;;;26.30;36.18;93903.97;5031726;28;20025;-52
2021/11/30 07:40:07;;;;;;;2.15;1.35;;;;;;;26.26;36.20;93905.59;5025758;28;20150;-53
2021/11/30 07:42:33;;;;;;;2.17;1.35;;;;;;;26.25;36.39;93914.38;5029964;28;20472;-52
2021/11/30 07:44:58;;;;;;;2.20;1.38;;;;;;;26.07;36.58;93921.75;5034194;28;20030;-53
2021/11/30 07:47:24;;;;;;;2.42;1.40;;;;;;;25.96;36.02;93924.16;5034065;28;20032;-52
2021/11/30 07:49:49;;;;;;;1.90;1.40;;;;;;;25.74;36.38;93921.47;5033020;28;20064;-52
2021/11/30 07:52:15;;;;;;;2.78;1.63;;;;;;;25.73;36.90;93928.25;5033608;28;20033;-55
2021/11/30 07:54:40;;;;;;;1.85;1.30;;;;;;;25.71;37.02;93945.22;5040884;28;20086;-53
2021/11/30 07:57:06;;;;;;;2.45;1.40;;;;;;;25.75;37.00;93950.31;5033761;28;20028;-52
2021/11/30 07:59:32;;;;;;;2.65;1.40;;;;;;;25.73;37.24;93952.88;5030329;28;20072;-52
2021/11/30 08:01:58;;;;;;;2.60;1.65;;;;;;;25.65;37.12;93963.06;5027647;28;20036;-53
2021/11/30 08:04:23;;;;;;;2.17;1.50;;;;;;;25.53;37.07;93959.22;5027384;28;20100;-52
2021/11/30 08:06:49;;;;;;;2.10;1.35;;;;;;;25.48;37.31;93968.34;5027414;28;20440;-52
2021/11/30 08:09:14;;;;;;;2.58;1.55;;;;;;;25.36;37.21;93978.19;5027265;28;20419;-52
2021/11/30 08:11:40;;;;;;;2.13;1.48;;;;;;;25.29;37.35;93987.13;5028487;28;20021;-53
2021/11/30 08:14:05;;;;;;;2.45;1.70;;;;;;;25.22;37.78;93982.38;5028878;28;20033;-54
2021/11/30 08:16:31;;;;;;;3.00;1.48;;;;;;;25.17;37.77;93986.03;5027173;28;20021;-54
2021/11/30 08:18:56;;;;;;;1.65;1.33;;;;;;;25.11;37.77;93996.41;5027297;28;20041;-52
2021/11/30 08:21:22;;;;;;;2.72;1.67;;;;;;;25.10;37.53;94014.06;5025675;28;20427;-52
2021/11/30 08:23:47;;;;;;;2.10;1.33;;;;;;;25.06;37.52;94012.97;5025738;28;20116;-52
2021/11/30 08:26:12;;;;;;;2.55;1.50;;;;;;;24.97;37.92;94011.47;5025661;28;21015;-54
2021/11/30 08:28:39;;;;;;;2.22;1.50;;;;;;;24.93;37.66;94010.34;5025461;28;20014;-53
2021/11/30 08:31:04;;;;;;;2.90;1.30;;;;;;;24.90;37.92;94028.56;5025413;28;20108;-52
2021/11/30 08:33:30;;;;;;;3.60;1.60;;;;;;;24.83;37.95;94018.34;5025446;28;20026;-52
2021/11/30 08:35:56;;;;;;;3.17;1.77;;;;;;;24.76;38.00;94028.53;5025553;28;20029;-52
2021/11/30 08:38:22;;;;;;;2.38;1.60;;;;;;;24.74;37.75;94028.31;5028749;28;20035;-53
2021/11/30 08:40:47;;;;;;;3.33;1.50;;;;;;;24.68;38.36;94027.75;5028060;28;20108;-53
2021/11/30 08:43:13;;;;;;;2.40;1.70;;;;;;;24.65;38.34;94028.84;5026929;28;20112;-52
2021/11/30 08:45:38;;;;;;;2.67;1.40;;;;;;;24.71;37.93;94041.09;5028620;28;20022;-53
2021/11/30 08:48:04;;;;;;;2.08;1.40;;;;;;;24.67;38.04;94032.50;5041036;28;20079;-53
2021/11/30 08:50:29;;;;;;;2.60;1.60;;;;;;;24.57;38.52;94033.56;5044852;28;20102;-52
2021/11/30 08:52:55;;;;;;;3.20;1.55;;;;;;;24.57;38.33;94034.31;5045047;28;20455;-53
2021/11/30 08:55:20;;;;;;;3.20;1.70;;;;;;;24.52;38.31;94042.66;5044870;28;20033;-54
2021/11/30 08:57:46;;;;;;;2.92;1.73;;;;;;;24.49;38.29;94052.63;5043775;28;20025;-53
2021/11/30 09:00:14;;;;;;;3.15;1.60;;;;;;;24.47;38.23;94051.72;5045281;28;20025;-54
2021/11/30 09:02:39;;;;;;;2.33;1.70;;;;;;;24.47;38.82;94051.72;5044862;28;20105;-52
2021/11/30 09:05:06;;;;;;;2.72;1.75;;;;;;;24.41;38.43;94070.25;5044844;28;20037;-54
2021/11/30 09:07:31;;;;;;;2.65;1.60;;;;;;;24.42;38.69;94077.16;5032396;28;20022;-53
2021/11/30 09:09:56;;;;;;;4.60;2.00;;;;;;;24.51;38.85;94084.84;5038548;28;20854;-53
2021/11/30 09:12:22;;;;;;;4.03;2.75;;;;;;;24.37;35.19;94080.78;5043022;28;20064;-52
2021/11/30 09:14:48;;;;;;;3.35;1.92;;;;;;;24.50;38.77;94088.88;5044953;28;20192;-53
2021/11/30 09:17:14;;;;;;;2.58;1.65;;;;;;;24.58;38.82;94100.53;5043952;28;20487;-53
2021/11/30 09:19:40;;;;;;;2.25;1.75;;;;;;;24.54;38.40;94100.91;5032414;28;20032;-54
2021/11/30 09:22:05;;;;;;;3.78;1.83;;;;;;;24.46;38.71;94104.84;5031072;28;20098;-51
2021/11/30 09:24:31;;;;;;;2.45;1.80;;;;;;;24.40;39.10;94112.44;5027366;28;20553;-54
2021/11/30 09:26:57;;;;;;;3.10;1.90;;;;;;;24.33;39.09;94102.22;5026924;28;20033;-53
2021/11/30 09:29:22;;;;;;;3.15;1.73;;;;;;;24.29;39.11;94107.28;5025853;28;20136;-53
2021/11/30 09:31:47;;;;;;;2.83;1.67;;;;;;;24.26;39.23;94097.44;5025973;28;20049;-53
2021/11/30 09:34:13;;;;;;;2.63;1.73;;;;;;;24.31;39.27;94104.72;5028521;28;20396;-53
2021/11/30 09:36:42;;;;;;;2.90;1.80;;;;;;;24.33;39.15;94107.66;5027980;28;20412;-51
2021/11/30 09:39:08;;;;;;;2.65;1.90;;;;;;;24.26;38.98;94111.06;5025762;28;20017;-54
2021/11/30 09:41:33;;;;;;;3.13;1.63;;;;;;;24.26;38.49;94102.88;5024450;28;20056;-52
2021/11/30 09:43:59;;;;;;;2.55;1.70;;;;;;;24.22;38.68;94118.84;5026929;28;20025;-53
2021/11/30 09:46:25;;;;;;;3.33;2.05;;;;;;;24.21;38.58;94117.38;5025681;28;20557;-53
2021/11/30 09:48:51;;;;;;;4.57;2.13;;;;;;;24.20;38.67;94126.84;5025814;28;20484;-51
2021/11/30 09:51:16;;;;;;;2.75;1.77;;;;;;;24.21;38.78;94125.56;5025754;28;20134;-54
2021/11/30 09:53:42;;;;;;;3.35;1.90;;;;;;;24.20;39.06;94135.03;5025579;28;20043;-54
2021/11/30 09:56:07;;;;;;;2.90;1.70;;;;;;;24.22;39.20;94131.78;5023522;28;20476;-55
2021/11/30 09:58:33;;;;;;;3.17;1.92;;;;;;;24.28;39.11;94133.09;5038310;28;20486;-59
2021/11/30 10:00:59;;;;;;;3.35;1.95;;;;;;;24.27;38.98;94126.16;5025188;28;20045;-51
2021/11/30 10:03:25;;;;;;;2.95;2.03;;;;;;;24.17;38.83;94117.00;5037449;28;20488;-52
2021/11/30 10:05:52;;;;;;;2.60;1.83;;;;;;;24.22;38.43;94124.31;5044215;28;20131;-54
2021/11/30 10:08:29;;;;;;;3.60;2.08;;;;;;;24.20;38.36;94135.03;5037873;28;20021;-53
2021/11/30 10:10:55;;;;;;;3.50;1.80;;;;;;;24.22;39.07;94135.22;5043794;28;20036;-53
2021/11/30 10:13:20;;;;;;;3.97;2.25;;;;;;;24.23;39.11;94142.16;5029451;28;20078;-55
2021/11/30 10:15:46;;;;;;;3.25;1.80;;;;;;;24.20;38.74;94118.66;5044492;28;20405;-54
2021/11/30 10:18:19;;;;;;;3.92;2.35;;;;;;;24.19;39.53;94130.84;5034268;28;20453;-53
2021/11/30 10:20:45;;;;;;;4.25;2.40;;;;;;;24.22;39.18;94134.50;5042557;28;20041;-52
2021/11/30 10:23:11;;;;;;;3.92;1.85;;;;;;;24.24;39.04;94143.59;5041503;28;20561;-52
2021/11/30 10:25:38;;;;;;;3.08;2.10;;;;;;;24.30;38.78;94141.47;5041273;28;20029;-54
2021/11/30 10:28:12;;;;;;;4.40;2.30;;;;;;;24.34;38.45;94152.81;5044847;28;20064;-53
2021/11/30 10:30:40;;;;;;;6.38;2.35;;;;;;;24.34;38.25;94152.09;5047213;28;20281;-52
2021/11/30 10:33:07;;;;;;;6.50;2.10;;;;;;;24.50;38.40;94157.09;5046623;28;20032;-55
2021/11/30 10:35:33;;;;;;;4.55;2.40;;;;;;;24.53;38.43;94147.84;5046432;28;20031;-53
2021/11/30 10:37:59;;;;;;;2.65;1.98;;;;;;;24.58;37.80;94149.69;5047101;28;20033;-53
2021/11/30 10:40:29;;;;;;;3.92;2.20;;;;;;;24.68;38.10;94161.53;5047272;28;20029;-53
2021/11/30 10:42:56;;;;;;;4.45;2.17;;;;;;;24.76;37.66;94165.06;5047340;28;20044;-53
2021/11/30 10:45:30;;;;;;;4.18;2.10;;;;;;;24.86;37.43;94177.69;5047096;28;20503;-53
2021/11/30 10:48:09;;;;;;;4.03;2.10;;;;;;;25.07;37.42;94168.16;5047494;28;20100;-52
2021/11/30 10:50:41;;;;;;;2.92;2.03;;;;;;;25.19;37.05;94169.28;5047018;28;20045;-53
2021/11/30 10:53:16;;;;;;;11.27;3.42;;;;;;;25.34;36.63;94163.88;5046085;28;20041;-53
2021/11/30 10:56:01;;;;;;;7.30;2.95;;;;;;;25.50;36.63;94165.38;5046977;28;20029;-53
2021/11/30 10:58:31;;;;;;;6.10;2.55;;;;;;;25.66;36.56;94161.44;5047176;28;20229;-52
2021/11/30 11:00:57;;;;;;;9.40;2.40;;;;;;;25.73;36.46;94166.91;5047520;28;20064;-53
2021/11/30 11:03:23;;;;;;;7.05;2.10;;;;;;;25.84;36.57;94161.81;5047360;28;20061;-53
2021/11/30 11:06:24;;;;;;;6.18;2.45;;;;;;;25.89;36.86;94149.97;5047272;28;20035;-52
2021/11/30 11:08:42;;;;;;;6.22;2.10;;;;;;;26.03;36.40;94167.66;5029893;28;20103;-52
2021/11/30 11:11:07;;;;;;;8.30;2.33;;;;;;;26.08;36.59;94158.53;5047177;28;20530;-54
2021/11/30 11:13:38;;;;;;;5.18;2.20;;;;;;;26.23;36.37;94183.16;5040982;28;20021;-53
2021/11/30 11:16:05;;;;;;;6.32;2.35;;;;;;;26.30;36.18;94174.25;5030529;28;20079;-53
2021/11/30 11:18:38;;;;;;;4.90;2.35;;;;;;;26.39;36.30;94170.97;5037039;28;20430;-53
2021/11/30 11:21:07;;;;;;;6.40;2.80;;;;;;;26.44;35.78;94161.81;5048369;28;20060;-53
2021/11/30 11:23:32;;;;;;;6.10;2.50;;;;;;;26.52;35.56;94179.72;5043082;28;20495;-54
2021/11/30 11:25:59;;;;;;;6.07;2.60;;;;;;;26.56;35.24;94185.56;5030416;28;20037;-55
2021/11/30 11:28:24;;;;;;;6.65;2.72;;;;;;;26.66;35.70;94177.50;5043260;28;20029;-54
2021/11/30 11:30:50;;;;;;;5.68;2.38;;;;;;;26.79;35.20;94181.50;5041527;28;20029;-56
2021/11/30 11:33:16;;;;;;;7.03;2.85;;;;;;;26.87;35.34;94176.72;5047430;28;20094;-55
2021/11/30 11:35:42;;;;;;;5.72;2.60;;;;;;;26.96;34.88;94200.84;5039420;28;20567;-53
2021/11/30 11:38:10;;;;;;;4.93;2.70;;;;;;;27.02;35.09;94198.63;5040468;28;20133;-52
2021/11/30 11:40:36;;;;;;;5.72;2.92;;;;;;;27.09;35.08;94206.09;5028583;28;20036;-52
2021/11/30 11:43:01;;;;;;;7.47;2.75;;;;;;;27.16;35.25;94202.63;5028736;28;20041;-53
2021/11/30 11:45:27;;;;;;;6.40;2.95;;;;;;;27.13;34.80;94209.22;5043221;28;20032;-54
2021/11/30 11:47:53;;;;;;;4.95;2.40;;;;;;;27.14;34.79;94204.44;5047044;28;20028;-52